Time;durP1;ratioP1;P1;durP2;ratioP2;P2;SDS_P1;SDS_P2;PMS_P1;PMS_P2;Temp;Humidity;BMP_temperature;BMP_pressure;BME280_temperature;BME280_humidity;BME280_pressure;Samples;Min_cycle;Max_cycle;Signal;HPM_P1;HPM_P2
2023/10/16 00:01:16;;;;;;;1.60;0.80;;;7.60;99.90;;;;;;4987557;28;20061;-81
2023/10/16 00:03:42;;;;;;;1.45;0.60;;;7.60;99.90;;;;;;4987932;28;20038;-81
2023/10/16 00:06:12;;;;;;;2.40;1.13;;;7.60;99.90;;;;;;4987280;28;20030;-81
2023/10/16 00:08:47;;;;;;;;;;;7.60;99.90;;;;;;4986910;28;20045;-81
2023/10/16 00:11:18;;;;;;;0.75;0.40;;;7.70;99.90;;;;;;4987600;28;19924;-81
2023/10/16 00:13:47;;;;;;;0.52;0.25;;;7.70;99.90;;;;;;5055070;28;20038;-81
2023/10/16 00:16:17;;;;;;;0.10;0.10;;;7.70;99.90;;;;;;5054950;28;20038;-82
2023/10/16 00:18:47;;;;;;;0.60;0.22;;;7.70;99.90;;;;;;5055018;28;20042;-81
2023/10/16 00:21:13;;;;;;;0.32;0.10;;;7.70;99.90;;;;;;4986655;28;20045;-81
2023/10/16 00:23:40;;;;;;;2.88;0.30;;;7.70;99.90;;;;;;4986429;28;20039;-81
2023/10/16 00:26:08;;;;;;;0.63;0.40;;;7.70;99.90;;;;;;5054604;28;20658;-81
2023/10/16 00:28:44;;;;;;;4.05;0.35;;;7.70;99.90;;;;;;4986986;28;20054;-81
2023/10/16 00:31:10;;;;;;;0.82;0.30;;;7.70;99.90;;;;;;4987893;28;20547;-81
2023/10/16 00:33:40;;;;;;;0.80;0.25;;;7.70;99.90;;;;;;5054545;28;20474;-81
2023/10/16 00:36:06;;;;;;;0.30;0.20;;;7.70;99.90;;;;;;4985690;28;20096;-81
2023/10/16 00:38:37;;;;;;;1.58;0.20;;;7.70;99.90;;;;;;5037762;28;20050;-81
2023/10/16 00:43:41;;;;;;;0.30;0.10;;;7.60;99.90;;;;;;4986310;28;20046;-81
2023/10/16 00:46:09;;;;;;;0.65;0.20;;;7.60;99.90;;;;;;4987262;28;20505;-81
2023/10/16 00:48:39;;;;;;;0.52;0.28;;;7.50;99.90;;;;;;5055018;28;20047;-81
2023/10/16 00:51:09;;;;;;;2.95;0.30;;;7.40;99.90;;;;;;4986951;28;20121;-81
2023/10/16 00:53:38;;;;;;;1.30;0.70;;;7.40;99.90;;;;;;4987551;28;20038;-81
2023/10/16 00:56:08;;;;;;;4.18;1.02;;;7.40;99.90;;;;;;4986823;28;20494;-81
2023/10/16 00:58:37;;;;;;;1.73;0.93;;;7.30;99.90;;;;;;4987509;28;20042;-81
2023/10/16 01:01:09;;;;;;;0.47;0.30;;;7.30;99.90;;;;;;4987641;28;20121;-81
2023/10/16 01:03:36;;;;;;;1.58;0.45;;;7.30;99.90;;;;;;4986583;28;20100;-81
2023/10/16 01:06:04;;;;;;;0.20;0.20;;;7.40;99.90;;;;;;4987626;28;20047;-81
2023/10/16 01:08:30;;;;;;;2.35;0.15;;;7.40;99.90;;;;;;4987767;28;20041;-81
2023/10/16 01:10:59;;;;;;;0.98;0.20;;;7.50;99.90;;;;;;4987122;28;20398;-82
2023/10/16 01:13:28;;;;;;;0.82;0.40;;;7.50;99.90;;;;;;4986851;28;20051;-81
2023/10/16 01:15:56;;;;;;;1.23;0.17;;;7.60;99.90;;;;;;4988993;28;20035;-81
2023/10/16 01:18:23;;;;;;;0.38;0.25;;;7.60;99.90;;;;;;4989040;28;20030;-81
2023/10/16 01:20:50;;;;;;;2.45;0.45;;;7.60;99.90;;;;;;4990007;28;20050;-81
2023/10/16 01:23:22;;;;;;;0.40;0.20;;;7.60;99.90;;;;;;4990103;28;20053;-81
2023/10/16 01:25:49;;;;;;;0.88;0.20;;;7.70;99.90;;;;;;4989242;28;20529;-81
2023/10/16 01:28:19;;;;;;;0.10;0.10;;;7.70;99.90;;;;;;4989457;28;20053;-81
2023/10/16 01:30:47;;;;;;;0.10;0.10;;;7.80;99.90;;;;;;4990762;28;20073;-81
2023/10/16 01:33:16;;;;;;;0.45;0.40;;;7.80;99.90;;;;;;5041228;28;20046;-81
2023/10/16 01:35:50;;;;;;;0.10;0.10;;;7.80;99.90;;;;;;4989897;28;20502;-81
2023/10/16 01:38:17;;;;;;;2.22;0.40;;;7.80;99.90;;;;;;4989249;28;20038;-81
2023/10/16 01:41:02;;;;;;;0.38;0.28;;;7.80;99.90;;;;;;4990204;28;20462;-81
2023/10/16 01:43:31;;;;;;;0.35;0.13;;;7.80;99.90;;;;;;4990352;28;20042;-81
2023/10/16 01:46:11;;;;;;;0.30;0.10;;;7.80;99.90;;;;;;4988292;28;20506;-81
2023/10/16 01:48:42;;;;;;;0.20;0.20;;;7.80;99.90;;;;;;4981138;28;20046;-81
2023/10/16 01:51:09;;;;;;;0.55;0.30;;;7.80;99.90;;;;;;4970510;28;20287;-81
2023/10/16 01:53:42;;;;;;;0.22;0.20;;;7.70;99.90;;;;;;4970250;28;20043;-81
2023/10/16 01:56:14;;;;;;;0.10;0.10;;;7.70;99.90;;;;;;4970802;28;20127;-81
2023/10/16 01:58:44;;;;;;;0.30;0.20;;;7.70;99.90;;;;;;4971044;28;20043;-81
2023/10/16 02:01:11;;;;;;;0.60;0.40;;;7.70;99.90;;;;;;4969542;28;20053;-81
2023/10/16 02:03:37;;;;;;;0.47;0.20;;;7.70;99.90;;;;;;4970450;28;20045;-81
2023/10/16 02:06:03;;;;;;;0.30;0.30;;;7.60;99.90;;;;;;4969253;28;20031;-81
2023/10/16 02:08:29;;;;;;;3.60;0.32;;;7.60;99.90;;;;;;4969777;28;20039;-81
2023/10/16 02:10:55;;;;;;;0.10;0.10;;;7.60;99.90;;;;;;5037270;28;20043;-81
2023/10/16 02:13:21;;;;;;;1.33;0.75;;;7.60;99.90;;;;;;5045894;28;20042;-81
2023/10/16 02:15:47;;;;;;;0.25;0.20;;;7.60;99.90;;;;;;4988676;28;20042;-81
2023/10/16 02:18:22;;;;;;;0.25;0.17;;;7.60;99.90;;;;;;4989704;28;20081;-81
2023/10/16 02:20:49;;;;;;;0.75;0.40;;;7.70;99.90;;;;;;4989052;28;20054;-81
2023/10/16 02:23:16;;;;;;;0.65;0.40;;;7.70;99.90;;;;;;4988555;28;20490;-81
2023/10/16 02:25:42;;;;;;;0.65;0.30;;;7.70;99.90;;;;;;4988901;28;20070;-81
2023/10/16 02:28:08;;;;;;;0.88;0.40;;;7.80;99.90;;;;;;4988092;28;20077;-81
2023/10/16 02:30:38;;;;;;;0.65;0.35;;;7.70;99.90;;;;;;5057092;28;20148;-81
2023/10/16 02:33:26;;;;;;;0.80;0.40;;;7.70;99.90;;;;;;5057738;28;20381;-81
2023/10/16 02:35:53;;;;;;;0.80;0.20;;;7.80;99.90;;;;;;4988188;28;20489;-81
2023/10/16 02:38:29;;;;;;;0.35;0.30;;;7.80;99.90;;;;;;4988965;28;20045;-81
2023/10/16 02:41:07;;;;;;;1.55;0.40;;;7.80;99.90;;;;;;5056233;28;20046;-81
2023/10/16 02:43:41;;;;;;;0.43;0.30;;;7.80;99.90;;;;;;5056290;28;20516;-81
2023/10/16 02:46:10;;;;;;;0.30;0.20;;;7.80;99.90;;;;;;4989089;28;20379;-81
2023/10/16 02:48:36;;;;;;;0.57;0.30;;;7.90;99.90;;;;;;4979748;28;20061;-81
2023/10/16 02:51:02;;;;;;;0.38;0.20;;;7.90;99.90;;;;;;4970225;28;20042;-81
2023/10/16 02:53:30;;;;;;;1.30;0.40;;;7.90;99.90;;;;;;4969554;28;20039;-81
2023/10/16 02:56:14;;;;;;;0.98;0.43;;;7.90;99.90;;;;;;5035691;28;20475;-81
2023/10/16 02:58:46;;;;;;;0.90;0.55;;;8.00;99.90;;;;;;4969942;28;20108;-81
2023/10/16 03:01:18;;;;;;;1.45;0.50;;;8.00;99.90;;;;;;5036946;28;20063;-81
2023/10/16 03:03:46;;;;;;;2.05;0.60;;;8.00;99.90;;;;;;4969300;28;20043;-81
2023/10/16 03:06:13;;;;;;;2.40;0.98;;;8.10;99.90;;;;;;4969366;28;20581;-81
2023/10/16 03:08:39;;;;;;;1.80;0.68;;;8.10;99.90;;;;;;4971500;28;20086;-81
2023/10/16 03:11:13;;;;;;;0.55;0.38;;;8.20;99.90;;;;;;4988301;28;20045;-81
2023/10/16 03:13:50;;;;;;;1.38;0.45;;;8.20;99.90;;;;;;4988828;28;20095;-81
2023/10/16 03:16:23;;;;;;;1.25;0.50;;;8.10;99.90;;;;;;4988037;28;20081;-81
2023/10/16 03:18:49;;;;;;;0.65;0.40;;;8.20;99.90;;;;;;4987943;28;20117;-81
2023/10/16 03:23:46;;;;;;;0.35;0.20;;;8.20;99.90;;;;;;4987468;28;20047;-81
2023/10/16 03:26:22;;;;;;;;;;;8.10;99.90;;;;;;4989676;28;20134;-81
2023/10/16 03:28:53;;;;;;;0.10;0.10;;;8.10;99.90;;;;;;4989249;28;19965;-81
2023/10/16 03:31:19;;;;;;;1.55;0.20;;;8.20;99.90;;;;;;4988399;28;20054;-81
2023/10/16 03:33:45;;;;;;;3.08;0.20;;;8.20;99.90;;;;;;5056341;28;20482;-82
2023/10/16 03:36:11;;;;;;;2.28;0.20;;;8.20;99.90;;;;;;4988432;28;20035;-81
2023/10/16 03:38:37;;;;;;;0.80;0.10;;;8.20;99.90;;;;;;4987714;28;20118;-81
2023/10/16 03:41:27;;;;;;;0.17;0.17;;;8.20;99.90;;;;;;5055542;28;20129;-81
2023/10/16 03:43:58;;;;;;;2.88;0.20;;;8.20;99.90;;;;;;4987673;28;20042;-81
2023/10/16 03:46:27;;;;;;;0.10;0.10;;;8.20;99.90;;;;;;5050406;28;20041;-81
2023/10/16 03:48:54;;;;;;;0.20;0.17;;;8.20;99.90;;;;;;5049894;28;20036;-81
2023/10/16 03:51:21;;;;;;;0.25;0.25;;;8.20;99.90;;;;;;5049052;28;20623;-81
2023/10/16 03:53:50;;;;;;;0.52;0.10;;;8.20;99.90;;;;;;5050723;28;20053;-81
2023/10/16 03:56:16;;;;;;;0.20;0.20;;;8.20;99.90;;;;;;5050803;28;20674;-81
2023/10/16 03:58:43;;;;;;;0.17;0.10;;;8.20;99.90;;;;;;5049609;28;20048;-81
2023/10/16 04:01:12;;;;;;;0.98;0.20;;;8.10;99.90;;;;;;5050674;28;20048;-81
2023/10/16 04:03:47;;;;;;;0.65;0.25;;;8.00;99.90;;;;;;5032581;28;20037;-81
2023/10/16 04:06:20;;;;;;;2.60;0.10;;;8.00;99.90;;;;;;5049277;28;20047;-81
2023/10/16 04:08:50;;;;;;;0.20;0.20;;;7.90;99.90;;;;;;5050867;28;20044;-82
2023/10/16 04:11:16;;;;;;;;;;;7.90;99.90;;;;;;5050292;28;20163;-82
2023/10/16 04:13:48;;;;;;;0.10;0.10;;;7.80;99.90;;;;;;5049164;28;20431;-81
2023/10/16 04:19:52;;;;;;;0.22;0.20;;;7.70;99.90;;;;;;5048867;28;20045;-82
2023/10/16 04:21:51;;;;;;;0.20;0.20;;;7.60;99.90;;;;;;5036600;28;20053;-82
2023/10/16 04:26:57;;;;;;;0.10;0.10;;;7.60;99.90;;;;;;5049855;28;20081;-82
2023/10/16 04:29:28;;;;;;;0.40;0.20;;;7.60;99.90;;;;;;5048288;28;20116;-83
2023/10/16 04:34:32;;;;;;;0.47;0.20;;;7.60;99.90;;;;;;5047820;28;20084;-83
2023/10/16 05:03:44;;;;;;;0.40;0.32;;;8.10;99.90;;;;;;5038095;28;20054;-82
2023/10/16 05:08:59;;;;;;;0.30;0.20;;;8.10;99.90;;;;;;5058413;28;20050;-81
2023/10/16 05:22:05;;;;;;;1.27;0.65;;;7.90;99.90;;;;;;5056853;28;20628;-81
2023/10/16 06:14:16;;;;;;;0.80;0.60;;;8.20;99.90;;;;;;5057092;28;20060;-83
2023/10/16 06:16:45;;;;;;;1.38;0.55;;;8.20;99.90;;;;;;5056650;28;20050;-83
2023/10/16 06:19:15;;;;;;;2.13;0.70;;;8.30;99.90;;;;;;4989554;28;20043;-83
2023/10/16 06:21:46;;;;;;;2.63;0.70;;;8.20;99.90;;;;;;4989408;28;20282;-83
2023/10/16 06:24:25;;;;;;;1.65;0.95;;;8.30;99.90;;;;;;4988404;28;20042;-83
2023/10/16 06:26:59;;;;;;;1.17;0.60;;;8.30;99.90;;;;;;5055588;28;20104;-83
2023/10/16 06:29:34;;;;;;;0.95;0.50;;;8.30;99.90;;;;;;4990161;28;20107;-83
2023/10/16 06:32:07;;;;;;;1.98;0.80;;;8.40;99.90;;;;;;4989063;28;20057;-82
2023/10/16 06:34:36;;;;;;;4.90;0.93;;;8.40;99.90;;;;;;4988920;28;20046;-82
2023/10/16 06:37:09;;;;;;;1.60;1.23;;;8.50;99.90;;;;;;4988188;28;20045;-83
2023/10/16 06:39:35;;;;;;;6.82;1.95;;;8.50;99.90;;;;;;4988329;28;20046;-83
2023/10/16 06:42:05;;;;;;;2.70;1.33;;;8.60;99.90;;;;;;4988724;28;20047;-83
2023/10/16 06:44:34;;;;;;;1.98;1.50;;;8.60;99.90;;;;;;4988727;28;20154;-83
2023/10/16 06:47:00;;;;;;;2.20;1.10;;;8.60;99.90;;;;;;4988385;28;20038;-83
2023/10/16 06:49:35;;;;;;;1.60;0.63;;;8.70;99.90;;;;;;5056527;28;20293;-83
2023/10/16 06:52:04;;;;;;;1.42;0.57;;;8.70;99.90;;;;;;5056636;28;20076;-83
2023/10/16 06:54:31;;;;;;;3.43;0.90;;;8.70;99.90;;;;;;4988330;28;20045;-83
2023/10/16 06:57:04;;;;;;;3.20;1.08;;;8.70;99.90;;;;;;4988797;28;20394;-83
2023/10/16 06:59:31;;;;;;;1.95;1.13;;;8.70;99.90;;;;;;5055332;28;20097;-81
2023/10/16 07:01:57;;;;;;;2.55;1.20;;;8.80;99.90;;;;;;4987934;28;20327;-82
2023/10/16 07:04:23;;;;;;;2.88;1.58;;;8.70;99.90;;;;;;4989082;28;20039;-82
2023/10/16 07:06:49;;;;;;;4.53;1.63;;;8.80;99.90;;;;;;4988246;28;20092;-82
2023/10/16 07:09:16;;;;;;;2.03;1.15;;;8.80;99.90;;;;;;4988887;28;20142;-83
2023/10/16 07:11:42;;;;;;;2.40;0.95;;;8.90;99.90;;;;;;5055355;28;20374;-84
2023/10/16 07:14:17;;;;;;;2.33;1.13;;;9.00;99.90;;;;;;5054850;28;20123;-83
2023/10/16 07:16:43;;;;;;;0.90;0.73;;;9.00;99.90;;;;;;5060599;28;20050;-83
2023/10/16 07:19:16;;;;;;;2.90;0.90;;;9.00;99.90;;;;;;5054284;28;20049;-83
2023/10/16 07:21:48;;;;;;;1.35;0.57;;;9.10;99.90;;;;;;5054132;28;20118;-84
2023/10/16 07:24:15;;;;;;;1.33;0.70;;;9.10;99.90;;;;;;5052472;28;20095;-83
2023/10/16 07:26:44;;;;;;;0.30;0.30;;;9.10;99.90;;;;;;4989843;28;20492;-89
2023/10/16 07:29:13;;;;;;;2.20;0.80;;;9.10;99.90;;;;;;5011536;28;20125;-86
2023/10/16 07:31:39;;;;;;;1.90;0.43;;;9.20;99.90;;;;;;5051223;28;20138;-83
2023/10/16 07:34:05;;;;;;;2.13;0.73;;;9.20;99.90;;;;;;5051063;28;20716;-83
2023/10/16 07:36:31;;;;;;;1.25;0.50;;;9.20;99.90;;;;;;5034698;28;20122;-83
2023/10/16 07:38:57;;;;;;;1.63;0.45;;;9.30;99.90;;;;;;4984813;28;20079;-83
2023/10/16 07:41:26;;;;;;;0.40;0.40;;;9.30;99.90;;;;;;4984983;28;20501;-83
2023/10/16 07:43:57;;;;;;;2.10;0.40;;;9.30;99.90;;;;;;4984402;28;20117;-83
2023/10/16 07:46:29;;;;;;;0.63;0.32;;;9.40;99.90;;;;;;4984656;28;20438;-83
2023/10/16 07:49:01;;;;;;;0.47;0.32;;;9.40;99.90;;;;;;4984380;28;20137;-83
2023/10/16 07:51:27;;;;;;;0.40;0.17;;;9.50;99.90;;;;;;4982934;28;20401;-83
2023/10/16 07:53:54;;;;;;;1.02;0.35;;;9.50;99.90;;;;;;4983820;28;20458;-83
2023/10/16 07:59:06;;;;;;;;;;;9.60;99.90;;;;;;4984517;28;20460;-82
2023/10/16 08:01:45;;;;;;;2.08;0.55;;;9.60;99.90;;;;;;4983626;28;19926;-81
2023/10/16 08:04:19;;;;;;;2.83;0.40;;;9.60;99.90;;;;;;5049811;28;20061;-81
2023/10/16 08:06:52;;;;;;;0.52;0.20;;;9.70;99.90;;;;;;4982785;28;20034;-81
2023/10/16 08:11:57;;;;;;;1.35;0.55;;;9.80;99.90;;;;;;4982412;28;20054;-82
2023/10/16 08:14:32;;;;;;;0.22;0.10;;;9.80;99.90;;;;;;4984224;28;20105;-82
2023/10/16 08:17:03;;;;;;;0.70;0.40;;;9.90;99.90;;;;;;5047616;28;20042;-82
2023/10/16 08:19:34;;;;;;;0.30;0.30;;;10.00;99.90;;;;;;5050324;28;20510;-81
2023/10/16 08:22:07;;;;;;;2.90;0.50;;;10.10;99.90;;;;;;4983487;28;20042;-81
2023/10/16 08:24:43;;;;;;;2.38;0.50;;;10.20;99.90;;;;;;4982532;28;20050;-81
2023/10/16 08:27:13;;;;;;;0.47;0.40;;;10.30;99.90;;;;;;5045056;28;20045;-81
2023/10/16 08:29:50;;;;;;;1.40;0.52;;;10.40;99.90;;;;;;5049900;28;20056;-82
2023/10/16 08:35:07;;;;;;;0.25;0.15;;;10.80;99.90;;;;;;5049108;28;20546;-81
2023/10/16 08:37:35;;;;;;;1.90;0.30;;;11.10;99.90;;;;;;5039477;28;20567;-81
2023/10/16 08:40:01;;;;;;;1.10;0.43;;;11.30;99.90;;;;;;4982186;28;20055;-82
2023/10/16 08:42:27;;;;;;;1.23;0.43;;;11.50;99.90;;;;;;4983257;28;20038;-82
2023/10/16 08:45:14;;;;;;;3.75;0.60;;;11.60;99.90;;;;;;5022114;28;20712;-82
2023/10/16 08:47:46;;;;;;;1.23;0.32;;;11.80;99.90;;;;;;4962963;28;20039;-82
2023/10/16 08:50:17;;;;;;;0.60;0.40;;;11.90;99.90;;;;;;4963569;28;20037;-82
2023/10/16 08:52:58;;;;;;;0.65;0.40;;;12.00;99.90;;;;;;4962875;28;20096;-82
2023/10/16 08:55:27;;;;;;;0.70;0.32;;;12.00;99.90;;;;;;4963482;28;20031;-82
2023/10/16 08:57:53;;;;;;;2.58;0.70;;;12.10;99.90;;;;;;4963231;28;20401;-82
2023/10/16 09:00:23;;;;;;;0.22;0.20;;;12.20;99.90;;;;;;4944932;28;20043;-82
2023/10/16 09:02:53;;;;;;;0.82;0.35;;;12.30;99.90;;;;;;4962502;28;20078;-82
2023/10/16 09:05:20;;;;;;;2.55;0.25;;;12.20;99.90;;;;;;4963616;28;20034;-82
2023/10/16 09:07:48;;;;;;;3.78;1.10;;;12.30;99.90;;;;;;4961728;28;20100;-81
2023/10/16 09:10:15;;;;;;;0.95;0.30;;;12.20;99.90;;;;;;4962290;28;20057;-81
2023/10/16 09:12:55;;;;;;;2.45;0.55;;;12.10;99.90;;;;;;4963229;28;20055;-82
2023/10/16 09:15:27;;;;;;;2.58;0.60;;;12.00;99.90;;;;;;4964244;28;20066;-82
2023/10/16 09:17:54;;;;;;;1.63;0.50;;;12.00;99.90;;;;;;4962280;28;20050;-82
2023/10/16 09:20:32;;;;;;;2.90;0.40;;;11.90;99.90;;;;;;4962653;28;20123;-84
2023/10/16 09:23:02;;;;;;;1.05;0.60;;;11.90;99.90;;;;;;4963435;28;20038;-84
2023/10/16 09:25:31;;;;;;;4.22;0.63;;;11.80;99.90;;;;;;4962922;28;20035;-84
2023/10/16 09:28:05;;;;;;;5.25;1.77;;;11.70;99.90;;;;;;4962133;28;20035;-83
2023/10/16 09:30:33;;;;;;;4.32;1.10;;;11.70;99.90;;;;;;4964473;28;20498;-84
2023/10/16 09:32:58;;;;;;;1.98;0.43;;;11.70;99.90;;;;;;4962724;28;20046;-84
2023/10/16 09:35:32;;;;;;;1.33;0.30;;;11.70;99.90;;;;;;4962246;28;20160;-84
2023/10/16 09:38:17;;;;;;;1.90;0.70;;;11.70;99.90;;;;;;5050447;28;20445;-82
2023/10/16 09:40:58;;;;;;;4.53;2.08;;;11.80;99.90;;;;;;4965825;28;20510;-82
2023/10/16 09:43:27;;;;;;;2.83;1.65;;;12.00;99.90;;;;;;4967228;28;20039;-82
2023/10/16 09:48:39;;;;;;;1.52;0.55;;;12.40;99.90;;;;;;4965028;28;20053;-82
2023/10/16 09:51:09;;;;;;;0.80;0.35;;;12.70;99.90;;;;;;4966334;28;20053;-82
2023/10/16 09:53:35;;;;;;;3.08;1.25;;;12.80;99.90;;;;;;4966199;28;20070;-82
2023/10/16 09:56:04;;;;;;;0.88;0.40;;;12.90;99.90;;;;;;4961605;28;20089;-82
2023/10/16 09:58:34;;;;;;;4.32;0.55;;;13.00;99.90;;;;;;4966766;28;20050;-82
2023/10/16 10:01:07;;;;;;;2.33;0.47;;;13.00;99.90;;;;;;4965914;28;20058;-83
2023/10/16 10:03:36;;;;;;;0.75;0.35;;;13.10;99.90;;;;;;4966801;28;20039;-82
2023/10/16 10:06:20;;;;;;;2.30;0.30;;;13.10;99.90;;;;;;4973964;28;20644;-83
2023/10/16 10:09:41;;;;;;;2.92;0.85;;;13.20;99.90;;;;;;4965794;28;20100;-85
2023/10/16 10:11:58;;;;;;;2.70;0.50;;;13.30;99.90;;;;;;4979671;28;20047;-83
2023/10/16 10:15:01;;;;;;;0.80;0.40;;;13.30;99.90;;;;;;4981571;28;20066;-83
2023/10/16 10:17:25;;;;;;;1.10;0.50;;;13.20;99.90;;;;;;4965453;28;20058;-83
2023/10/16 10:19:55;;;;;;;1.23;0.68;;;13.10;99.90;;;;;;4962078;28;20051;-84
2023/10/16 10:22:28;;;;;;;2.53;0.40;;;13.00;99.90;;;;;;4965506;28;20541;-83
2023/10/16 10:25:22;;;;;;;0.82;0.40;;;12.90;99.90;;;;;;4966401;28;20031;-91
2023/10/16 10:27:49;;;;;;;2.80;0.60;;;12.90;99.90;;;;;;4967445;28;20050;-83
2023/10/16 10:30:25;;;;;;;1.38;0.57;;;12.80;99.90;;;;;;4965588;28;20046;-83
2023/10/16 10:33:00;;;;;;;3.67;0.85;;;12.90;99.90;;;;;;4966203;28;20039;-83
2023/10/16 10:35:38;;;;;;;3.85;0.73;;;13.00;99.90;;;;;;4965329;28;20044;-83
2023/10/16 10:38:07;;;;;;;0.65;0.30;;;13.10;99.90;;;;;;4964327;28;20486;-85
2023/10/16 10:40:35;;;;;;;0.55;0.20;;;13.30;99.90;;;;;;4965449;28;20043;-86
2023/10/16 10:43:03;;;;;;;2.00;0.57;;;13.90;99.90;;;;;;4965144;28;20050;-84
2023/10/16 10:45:36;;;;;;;0.50;0.20;;;14.50;99.90;;;;;;4964625;28;20051;-84
2023/10/16 10:48:09;;;;;;;2.60;0.52;;;14.60;99.90;;;;;;4964124;28;20491;-85
2023/10/16 10:50:38;;;;;;;0.15;0.15;;;14.70;99.90;;;;;;4965251;28;20051;-84
2023/10/16 10:53:13;;;;;;;4.97;0.32;;;14.60;99.90;;;;;;4964918;28;20057;-84
2023/10/16 10:55:56;;;;;;;0.43;0.20;;;14.70;99.90;;;;;;4964972;28;20495;-84
2023/10/16 10:58:31;;;;;;;2.40;0.43;;;14.80;99.90;;;;;;5049089;28;20050;-85
2023/10/16 11:01:16;;;;;;;1.77;0.38;;;14.80;99.90;;;;;;4964829;28;20031;-85
2023/10/16 11:03:45;;;;;;;2.53;0.40;;;14.90;99.90;;;;;;4965026;28;20047;-85
2023/10/16 11:06:19;;;;;;;1.08;0.45;;;15.10;99.90;;;;;;4966081;28;20113;-88
2023/10/16 11:08:50;;;;;;;0.98;0.22;;;15.40;99.90;;;;;;4964623;28;20030;-91
2023/10/16 11:11:16;;;;;;;2.45;0.75;;;15.50;99.90;;;;;;4948582;28;20475;-83
2023/10/16 11:13:47;;;;;;;0.88;0.43;;;15.30;99.90;;;;;;4964530;28;20140;-83
2023/10/16 11:16:14;;;;;;;2.35;0.50;;;15.00;99.90;;;;;;4965983;28;20051;-83
2023/10/16 11:18:43;;;;;;;1.25;0.32;;;14.80;99.90;;;;;;4966061;28;20043;-82
2023/10/16 11:21:09;;;;;;;0.43;0.20;;;14.60;99.90;;;;;;4965869;28;20043;-83
2023/10/16 11:23:40;;;;;;;1.95;0.40;;;14.50;99.90;;;;;;4965218;28;20101;-83
2023/10/16 11:26:06;;;;;;;0.73;0.30;;;14.40;99.90;;;;;;4962649;28;20104;-85
2023/10/16 11:28:32;;;;;;;6.35;1.02;;;14.30;99.90;;;;;;4965968;28;20065;-85
2023/10/16 11:31:00;;;;;;;0.20;0.20;;;14.40;99.90;;;;;;4965943;28;20096;-85
2023/10/16 11:34:00;;;;;;;0.90;0.40;;;14.60;99.90;;;;;;4964918;28;20038;-85
2023/10/16 11:36:30;;;;;;;3.47;0.57;;;14.90;99.90;;;;;;4965705;28;20031;-85
2023/10/16 11:39:03;;;;;;;0.35;0.30;;;15.20;99.90;;;;;;4965450;28;20046;-85
2023/10/16 11:41:33;;;;;;;3.63;0.45;;;15.40;99.90;;;;;;4964698;28;20133;-85
2023/10/16 11:44:13;;;;;;;1.10;0.40;;;15.60;99.90;;;;;;4965087;28;20047;-85
2023/10/16 11:46:52;;;;;;;1.65;0.30;;;15.70;99.90;;;;;;5052941;28;20107;-85
2023/10/16 11:51:48;;;;;;;0.50;0.20;;;15.80;99.90;;;;;;4985660;28;20047;-86
2023/10/16 11:54:21;;;;;;;4.28;0.30;;;15.70;99.90;;;;;;5050850;28;20077;-85
2023/10/16 11:56:53;;;;;;;1.48;0.30;;;15.70;99.90;;;;;;5051392;28;20042;-85
2023/10/16 11:59:25;;;;;;;1.48;0.30;;;15.60;99.90;;;;;;5050855;28;20043;-85
2023/10/16 12:01:59;;;;;;;2.20;0.60;;;15.50;99.90;;;;;;5050799;28;20139;-85
2023/10/16 12:04:26;;;;;;;0.13;0.10;;;15.30;99.90;;;;;;5051927;28;20038;-85
2023/10/16 12:06:52;;;;;;;0.95;0.50;;;15.10;99.90;;;;;;4984947;28;20404;-85
2023/10/16 12:09:22;;;;;;;5.65;0.60;;;15.00;99.90;;;;;;4984029;28;20117;-85
2023/10/16 12:11:49;;;;;;;3.22;0.50;;;14.90;99.90;;;;;;5051515;28;20042;-85
2023/10/16 12:14:17;;;;;;;2.08;0.52;;;14.80;99.90;;;;;;5051653;28;20637;-86
2023/10/16 12:16:47;;;;;;;2.58;0.73;;;14.80;99.90;;;;;;4984202;28;20045;-85
2023/10/16 12:19:16;;;;;;;2.97;0.38;;;15.00;99.90;;;;;;5052007;28;20050;-85
2023/10/16 12:21:43;;;;;;;;;;;15.10;99.90;;;;;;5051951;28;20050;-84
2023/10/16 12:24:13;;;;;;;0.80;0.30;;;15.40;99.90;;;;;;4983650;28;19925;-84
2023/10/16 12:26:42;;;;;;;2.58;0.30;;;15.40;99.90;;;;;;4984147;28;20038;-83
2023/10/16 12:29:08;;;;;;;1.48;0.52;;;15.10;99.90;;;;;;4982729;28;20599;-84
2023/10/16 12:31:40;;;;;;;3.20;0.65;;;14.80;99.90;;;;;;4983460;28;20513;-84
2023/10/16 12:34:10;;;;;;;0.28;0.20;;;14.60;99.90;;;;;;4983052;28;20074;-84
2023/10/16 12:36:43;;;;;;;1.02;0.20;;;14.50;99.90;;;;;;4983370;28;20031;-85
2023/10/16 12:39:25;;;;;;;1.13;0.30;;;14.30;99.90;;;;;;4983462;28;20035;-85
2023/10/16 12:42:01;;;;;;;0.80;0.30;;;14.30;99.90;;;;;;4984368;28;20051;-84
2023/10/16 12:44:28;;;;;;;0.68;0.25;;;14.20;99.90;;;;;;4981745;28;20207;-84
2023/10/16 12:46:55;;;;;;;1.73;0.30;;;14.20;99.90;;;;;;4983538;28;20050;-84
2023/10/16 12:49:21;;;;;;;0.85;0.40;;;14.20;99.90;;;;;;4983601;28;20149;-84
2023/10/16 12:51:48;;;;;;;0.68;0.10;;;14.30;99.90;;;;;;4983699;28;20513;-87
2023/10/16 12:54:15;;;;;;;0.28;0.28;;;14.30;99.90;;;;;;4984030;28;20058;-84
2023/10/16 12:56:43;;;;;;;0.52;0.20;;;14.30;99.90;;;;;;4984299;28;20079;-84
2023/10/16 12:59:10;;;;;;;0.90;0.40;;;14.40;99.90;;;;;;5049776;28;20054;-84
2023/10/16 13:01:37;;;;;;;0.50;0.40;;;14.30;99.90;;;;;;4983697;28;20031;-83
2023/10/16 13:04:06;;;;;;;0.45;0.20;;;14.40;99.90;;;;;;4983767;28;20494;-84
2023/10/16 13:06:33;;;;;;;1.75;0.52;;;14.50;99.90;;;;;;4985086;28;20040;-83
2023/10/16 13:09:00;;;;;;;3.97;0.40;;;14.50;99.90;;;;;;4983835;28;20041;-83
2023/10/16 13:11:27;;;;;;;2.95;0.77;;;14.40;99.90;;;;;;4986617;28;20049;-83
2023/10/16 13:13:55;;;;;;;3.75;0.40;;;14.40;99.90;;;;;;5055038;28;20035;-84
2023/10/16 13:16:25;;;;;;;1.90;0.43;;;14.30;99.90;;;;;;4987475;28;20505;-84
2023/10/16 13:18:57;;;;;;;1.73;0.30;;;14.30;99.90;;;;;;4985949;28;20045;-83
2023/10/16 13:21:33;;;;;;;1.60;0.30;;;14.30;99.90;;;;;;5054077;28;20045;-84
2023/10/16 13:24:09;;;;;;;0.40;0.40;;;14.20;99.90;;;;;;5054124;28;20046;-84
2023/10/16 13:26:36;;;;;;;0.70;0.28;;;14.10;99.90;;;;;;5053266;28;20575;-84
2023/10/16 13:29:08;;;;;;;2.88;0.30;;;14.00;99.90;;;;;;5017616;28;20054;-84
2023/10/16 13:31:40;;;;;;;4.10;0.68;;;14.00;99.90;;;;;;4987244;28;20073;-83
2023/10/16 13:34:10;;;;;;;0.90;0.43;;;13.90;99.90;;;;;;4986640;28;20040;-84
2023/10/16 13:36:56;;;;;;;0.70;0.40;;;14.00;99.90;;;;;;5053675;28;20045;-83
2023/10/16 13:39:24;;;;;;;0.85;0.20;;;13.90;99.90;;;;;;4986730;28;20053;-84
2023/10/16 13:41:51;;;;;;;2.28;0.20;;;13.80;99.90;;;;;;4986963;28;20042;-84
2023/10/16 13:44:19;;;;;;;1.83;0.40;;;13.90;99.90;;;;;;4987053;28;20058;-84
2023/10/16 13:46:49;;;;;;;3.40;0.20;;;13.90;99.90;;;;;;4985611;28;20104;-83
2023/10/16 13:49:16;;;;;;;;;;;13.90;99.90;;;;;;4987003;28;20764;-83
2023/10/16 13:51:42;;;;;;;3.28;0.70;;;13.80;99.90;;;;;;4986497;28;19963;-84
2023/10/16 13:54:14;;;;;;;1.10;0.60;;;13.80;99.90;;;;;;4985115;28;20044;-84
2023/10/16 13:56:46;;;;;;;0.88;0.20;;;13.70;99.90;;;;;;5054278;28;20038;-84
2023/10/16 13:59:12;;;;;;;2.42;0.55;;;13.60;99.90;;;;;;5053641;28;20370;-85
2023/10/16 14:01:39;;;;;;;5.10;0.75;;;13.60;99.90;;;;;;5052925;28;20050;-84
2023/10/16 14:04:14;;;;;;;0.70;0.30;;;13.60;99.90;;;;;;4986218;28;20555;-90
2023/10/16 14:06:52;;;;;;;1.60;0.20;;;13.50;99.90;;;;;;5036435;28;20034;-86
2023/10/16 14:09:27;;;;;;;0.93;0.40;;;13.50;99.90;;;;;;4987181;28;20041;-84
2023/10/16 14:11:58;;;;;;;1.00;0.38;;;13.50;99.90;;;;;;4986751;28;20047;-96
2023/10/16 14:14:26;;;;;;;2.58;0.30;;;13.50;99.90;;;;;;4985670;28;20046;-85
2023/10/16 14:17:16;;;;;;;1.35;0.57;;;13.50;99.90;;;;;;4985403;28;20035;-87
2023/10/16 14:19:49;;;;;;;0.95;0.22;;;13.50;99.90;;;;;;5054404;28;20099;-85
2023/10/16 14:22:15;;;;;;;3.58;0.77;;;13.50;99.90;;;;;;4986176;28;20057;-85
2023/10/16 14:24:45;;;;;;;0.73;0.30;;;13.50;99.90;;;;;;5054663;28;20046;-84
2023/10/16 14:27:13;;;;;;;2.17;0.40;;;13.50;99.90;;;;;;5053939;28;20502;-85
2023/10/16 14:29:44;;;;;;;0.43;0.20;;;13.50;99.90;;;;;;4985804;28;20512;-85
2023/10/16 14:32:11;;;;;;;0.22;0.22;;;13.50;99.90;;;;;;4986027;28;20042;-85
2023/10/16 14:34:36;;;;;;;0.38;0.20;;;13.50;99.90;;;;;;4985482;28;20035;-85
2023/10/16 14:37:05;;;;;;;0.65;0.28;;;13.40;99.90;;;;;;4986004;28;20045;-85
2023/10/16 14:39:31;;;;;;;3.07;0.40;;;13.40;99.90;;;;;;4985400;28;20035;-85
2023/10/16 14:42:05;;;;;;;1.35;0.20;;;13.40;99.90;;;;;;4985014;28;20447;-84
2023/10/16 14:44:31;;;;;;;1.85;0.80;;;13.30;99.90;;;;;;4985293;28;20146;-84
2023/10/16 14:46:57;;;;;;;0.55;0.20;;;13.30;99.90;;;;;;4986195;28;20087;-83
2023/10/16 14:49:25;;;;;;;2.85;1.02;;;13.30;99.90;;;;;;4996361;28;20083;-83
2023/10/16 14:51:51;;;;;;;1.95;0.57;;;13.20;99.90;;;;;;4984459;28;20049;-81
2023/10/16 14:54:21;;;;;;;1.48;0.30;;;13.20;99.90;;;;;;4986135;28;20042;-87
2023/10/16 14:56:49;;;;;;;1.40;0.30;;;13.10;99.90;;;;;;4985333;28;20096;-88
2023/10/16 14:59:26;;;;;;;3.92;0.85;;;13.00;99.90;;;;;;5053098;28;20135;-88
2023/10/16 15:01:53;;;;;;;0.40;0.40;;;13.00;99.90;;;;;;5047384;28;20088;-86
2023/10/16 15:04:25;;;;;;;4.28;0.38;;;12.90;99.90;;;;;;4985256;28;20517;-85
2023/10/16 15:06:51;;;;;;;0.47;0.30;;;12.90;99.90;;;;;;4985259;28;20139;-85